Latest Weather Observations for Oenpelli Airport

IDD60801

Issued at 10:11 am CST Thursday 21 November 2019 (issued every 10 minutes, with the page automatically refreshed every 10 minutes)

About weather observations | Map of weather stations | Latest weather observations for NT | Other Formats
Station Details ID: 014310 Name: OENPELLI AIRPORT Lat: -12.33 Lon: 133.01 Height: 7.5 m
Data from the previous 72 hours. | See also: Recent months at Oenpelli Airport
Date/Time
CST
Temp
°C
App
Temp
°C
Dew
Point
°C
Rel
Hum
%
Delta-T
°C
Wind Press
QNH
hPa
Press
MSL
hPa
Rain since
9am
mm
Dir  Spd
km/h
Gust
km/h
Spd
kts
Gust
kts
21/10:00am 32.0 36.1 21.5 53 7.1 NNW 2 6 1 3 1011.3 1011.2 0.0
21/09:30am 30.9 35.7 23.5 64 5.1 WNW 4 6 2 3 1011.5 1011.4 0.0
21/09:00am 30.4 35.3 23.6 67 4.7 E 4 9 2 5 1011.7 1011.6 5.2
21/08:30am 29.4 33.4 23.1 69 4.3 NNE 7 9 4 5 1011.6 1011.5 5.2
21/08:00am 28.5 32.4 23.0 72 3.8 NE 7 11 4 6 1011.5 1011.4 5.0
21/07:30am 28.0 32.4 23.4 76 3.2 E 6 6 3 3 1011.2 1011.1 5.0
21/07:00am 26.5 31.1 23.8 85 1.9 E 6 6 3 3 1011.2 1011.1 5.0
21/06:30am 24.8 30.2 23.8 94 0.7 E 2 4 1 2 1010.9 1010.8 5.0
21/06:00am 25.1 30.6 24.1 94 0.7 E 2 6 1 3 1010.3 1010.2 5.0
21/05:30am 24.9 30.7 23.9 94 0.7 CALM 0 0 0 0 1009.9 1009.8 5.0
21/05:00am 25.3 30.8 24.1 93 0.8 E 2 2 1 1 1009.7 1009.6 5.0
21/04:30am 25.4 31.2 24.0 92 1.0 CALM 0 0 0 0 1009.4 1009.3 5.0
21/04:00am 25.7 30.7 23.9 90 1.2 E 4 4 2 2 1009.2 1009.1 5.0
21/03:30am 25.5 31.5 24.3 93 0.8 CALM 0 2 0 1 1009.1 1009.0 5.0
21/03:00am 25.1 30.8 23.7 92 1.0 CALM 0 0 0 0 1009.0 1008.9 5.0
21/02:30am 25.3 30.8 23.4 89 1.3 CALM 0 0 0 0 1009.1 1009.0 5.0
21/02:00am 25.1 30.4 23.0 88 1.4 CALM 0 0 0 0 1009.3 1009.2 5.0
21/01:30am 25.2 30.7 23.4 90 1.2 CALM 0 0 0 0 1009.7 1009.6 5.0
21/01:00am 24.7 29.9 22.8 89 1.3 CALM 0 2 0 1 1010.1 1010.0 5.0
21/12:30am 25.6 30.7 23.3 87 1.6 WSW 2 4 1 2 1010.3 1010.2 5.0
21/12:00am 25.4 30.3 22.3 83 2.1 CALM 0 0 0 0 1010.6 1010.5 5.0
 
Date/Time
CST
Temp
°C
App
Temp
°C
Dew
Point
°C
Rel
Hum
%
Delta-T
°C
Wind Press
QNH
hPa
Press
MSL
hPa
Rain since
9am
mm
Dir  Spd
km/h
Gust
km/h
Spd
kts
Gust
kts
20/11:30pm 27.4 32.5 23.4 79 2.7 NE 2 4 1 2 1010.5 1010.4 5.0
20/11:00pm 27.3 32.0 23.3 79 2.7 NNE 4 6 2 3 1010.6 1010.5 5.0
20/10:30pm 27.4 31.5 23.0 77 3.0 NE 6 7 3 4 1010.3 1010.2 5.0
20/10:00pm 27.6 31.5 23.0 76 3.1 NE 7 11 4 6 1010.0 1009.9 5.0
20/09:30pm 27.7 31.6 22.9 75 3.3 NNE 7 9 4 5 1009.6 1009.5 5.0
20/09:00pm 28.2 31.8 23.1 74 3.5 NNE 9 11 5 6 1009.3 1009.2 5.0
20/08:30pm 28.0 31.4 23.4 76 3.2 NNE 11 15 6 8 1008.6 1008.5 5.0
20/08:00pm 28.2 32.6 23.8 77 3.0 N 7 11 4 6 1008.6 1008.5 5.0
20/07:30pm 27.5 31.6 23.3 78 2.9 WNW 7 11 4 6 1008.4 1008.3 5.0
20/07:00pm 27.2 30.8 23.7 81 2.4 NW 11 15 6 8 1007.8 1007.7 5.0
20/06:30pm 26.5 27.9 22.6 79 2.6 NNE 19 28 10 15 1007.9 1007.8 5.0
20/06:19pm 27.1 27.2 23.3 80 2.6 NE 28 61 15 33 1007.5 1007.4 4.4
20/06:17pm 27.4 27.8 23.2 78 2.9 NE 26 61 14 33 1007.3 1007.2 3.2
20/06:00pm 29.3 29.8 22.0 64 4.9 ESE 22 35 12 19 1007.1 1007.0 0.4
20/05:30pm 31.6 32.8 21.5 55 6.8 W 17 32 9 17 1006.4 1006.3 0.0
20/05:00pm 35.2 35.1 20.7 42 9.8 NNW 22 35 12 19 1005.8 1005.7 0.0
20/04:30pm 37.0 37.4 19.9 36 11.5 NNE 17 43 9 23 1005.0 1004.9 0.0
20/04:29pm 38.0 38.8 19.9 35 12.1 NE 15 43 8 23 1005.1 1005.0 0.0
20/04:00pm 38.8 38.2 14.6 24 15.2 ENE 11 19 6 10 1005.2 1005.1 0.0
20/03:30pm 39.2 38.3 13.6 22 15.9 ENE 11 22 6 12 1005.4 1005.3 0.0
20/03:00pm 38.9 37.9 14.7 24 15.2 ENE 13 24 7 13 1006.0 1005.9 0.0
20/02:30pm 38.4 39.1 15.5 26 14.6 WNW 6 13 3 7 1006.3 1006.2 0.0
20/02:00pm 37.9 37.3 15.7 27 14.1 ESE 13 22 7 12 1006.8 1006.7 0.0
20/01:30pm 38.0 39.2 17.4 29 13.4 SSW 7 13 4 7 1007.3 1007.2 0.0
20/01:00pm 37.7 39.2 17.7 31 13.0 NNE 6 9 3 5 1007.9 1007.8 0.0
20/12:30pm 36.4 37.5 18.0 33 12.0 N 9 19 5 10 1008.5 1008.4 0.0
20/12:00pm 36.3 38.1 18.4 35 11.7 W 6 11 3 6 1009.1 1009.0 0.0
20/11:30am 35.3 37.3 19.2 38 10.6 SW 7 11 4 6 1009.6 1009.5 0.0
20/11:00am 33.7 35.8 19.4 43 9.4 NNE 7 15 4 8 1010.1 1010.0 0.0
20/10:30am 33.8 36.5 20.6 46 8.9 S 7 13 4 7 1010.6 1010.5 0.0
20/10:00am 32.2 35.0 20.5 50 7.8 NE 6 11 3 6 1010.8 1010.7 0.0
20/09:30am 31.8 34.6 20.4 51 7.6 NNE 6 11 3 6 1010.8 1010.7 0.0
20/09:00am 31.1 34.7 21.3 56 6.6 ENE 4 9 2 5 1010.9 1010.8 0.0
20/08:30am 30.6 34.3 22.2 61 5.7 NNE 6 7 3 4 1010.8 1010.7 0.0
20/08:00am 29.1 32.6 21.8 64 4.9 NE 6 9 3 5 1010.5 1010.4 0.0
20/07:30am 28.2 32.8 22.4 71 3.9 E 2 6 1 3 1010.2 1010.1 0.0
20/07:00am 26.0 30.9 22.3 80 2.5 CALM 0 0 0 0 1010.0 1009.9 0.0
20/06:30am 24.8 29.8 22.5 87 1.5 CALM 0 0 0 0 1009.6 1009.5 0.0
20/06:00am 24.2 28.7 21.5 85 1.8 CALM 0 0 0 0 1009.3 1009.2 0.0
20/05:30am 24.7 29.4 22.0 85 1.8 CALM 0 0 0 0 1009.3 1009.2 0.0
20/05:00am 25.0 29.0 22.1 84 1.9 NNE 4 6 2 3 1009.0 1008.9 0.0
20/04:30am 25.3 29.8 22.2 83 2.1 ENE 2 4 1 2 1009.1 1009.0 0.0
20/04:00am 25.5 30.4 22.4 83 2.1 CALM 0 4 0 2 1008.9 1008.8 0.0
20/03:30am 24.7 29.3 21.8 84 1.9 CALM 0 0 0 0 1009.0 1008.9 0.0
20/03:00am 24.5 29.0 21.6 84 1.9 CALM 0 0 0 0 1009.1 1009.0 0.0
20/02:30am 24.8 29.1 21.1 80 2.4 CALM 0 0 0 0 1009.1 1009.0 0.0
20/02:00am 24.9 29.4 21.6 82 2.2 CALM 0 0 0 0 1009.4 1009.3 0.0
20/01:30am 24.1 27.5 20.2 79 2.5 SSW 2 6 1 3 1009.8 1009.7 0.0
20/01:00am 26.0 29.7 21.4 76 3.1 NW 4 9 2 5 1010.0 1009.9 0.0
20/12:30am 26.9 31.7 22.1 75 3.2 CALM 0 0 0 0 1010.1 1010.0 0.0
20/12:00am 27.1 30.7 22.1 74 3.4 ENE 6 7 3 4 1010.2 1010.1 0.0
 
Date/Time
CST
Temp
°C
App
Temp
°C
Dew
Point
°C
Rel
Hum
%
Delta-T
°C
Wind Press
QNH
hPa
Press
MSL
hPa
Rain since
9am
mm
Dir  Spd
km/h
Gust
km/h
Spd
kts
Gust
kts
19/11:30pm 27.4 31.4 22.1 73 3.6 ENE 4 6 2 3 1010.5 1010.4 0.0
19/11:00pm 27.7 31.1 21.7 70 4.0 NE 6 7 3 4 1010.5 1010.4 0.0
19/10:30pm 27.9 31.1 21.7 69 4.2 NE 7 9 4 5 1010.5 1010.4 0.0
19/10:00pm 27.5 30.7 21.3 69 4.1 NNE 6 7 3 4 1010.3 1010.2 0.0
19/09:30pm 28.5 31.3 20.8 63 5.1 ENE 7 11 4 6 1009.9 1009.8 0.0
19/09:00pm 28.5 31.1 20.5 62 5.3 ENE 7 11 4 6 1009.7 1009.6 0.0
19/08:30pm 29.3 31.7 19.6 56 6.3 NE 6 9 3 5 1009.3 1009.2 0.0
19/08:00pm 29.8 31.4 19.2 53 6.9 N 9 13 5 7 1009.1 1009.0 0.0
19/07:30pm 30.0 31.1 18.8 51 7.3 N 11 15 6 8 1008.8 1008.7 0.0
19/07:00pm 31.3 31.9 18.6 46 8.2 NNW 13 19 7 10 1008.6 1008.5 0.0
19/06:30pm 31.8 32.8 19.4 47 8.1 NNW 13 17 7 9 1008.2 1008.1 0.0
19/06:00pm 31.8 33.3 19.8 49 7.9 NW 11 19 6 10 1007.8 1007.7 0.0
19/05:30pm 32.2 33.5 20.8 51 7.6 NW 15 22 8 12 1007.2 1007.1 0.0
19/05:00pm 33.4 33.2 19.8 44 9.0 NW 20 32 11 17 1006.6 1006.5 0.0
19/04:30pm 36.1 34.6 14.1 26 13.6 NNE 15 22 8 12 1005.8 1005.7 0.0
19/04:00pm 37.2 36.2 14.5 26 14.1 NNE 13 24 7 13 1005.7 1005.6 0.0
19/03:30pm 36.8 37.8 16.4 30 13.1 S 6 7 3 4 1006.0 1005.9 0.0
19/03:00pm 36.8 37.0 15.8 28 13.3 SSE 9 13 5 7 1006.3 1006.2 0.0
19/02:30pm 37.8 38.7 16.7 29 13.6 ENE 7 17 4 9 1006.5 1006.4 0.0
19/02:00pm 38.3 39.4 16.6 28 14.0 SSE 6 15 3 8 1006.7 1006.6 0.0
19/01:30pm 37.7 38.7 17.7 31 13.1 N 9 17 5 9 1007.3 1007.2 0.0
19/01:00pm 37.9 38.7 17.3 29 13.4 ESE 9 19 5 10 1007.9 1007.8 0.0
19/12:30pm 36.7 37.9 17.3 31 12.6 ENE 7 19 4 10 1008.6 1008.5 0.0
19/12:00pm 35.7 37.3 17.9 35 11.6 ENE 6 13 3 7 1009.2 1009.1 0.0
19/11:30am 34.7 36.9 19.1 39 10.3 ENE 6 13 3 7 1009.7 1009.6 0.0
19/11:00am 33.5 36.2 20.3 46 8.8 SSE 6 13 3 7 1010.2 1010.1 0.0
19/10:30am 33.8 37.0 21.6 49 8.3 S 7 13 4 7 1010.8 1010.7 0.0
19/10:00am 31.9 35.6 21.4 53 7.1 S 4 7 2 4 1011.0 1010.9 0.0
19/09:30am 31.1 34.3 21.6 57 6.4 SSE 7 13 4 7 1011.2 1011.1 0.0
19/09:00am 31.4 36.0 22.4 59 6.1 ESE 2 6 1 3 1011.2 1011.1 0.0
19/08:30am 29.9 34.3 22.1 63 5.3 WSW 2 6 1 3 1011.1 1011.0 0.0
19/08:00am 29.3 33.9 22.5 67 4.6 SW 2 4 1 2 1010.8 1010.7 0.0
19/07:30am 27.5 31.8 22.7 75 3.3 SW 4 6 2 3 1010.5 1010.4 0.0
19/07:00am 26.2 31.0 22.9 82 2.2 WSW 2 4 1 2 1010.3 1010.2 0.0
19/06:30am 24.7 29.6 22.4 87 1.5 CALM 0 0 0 0 1010.1 1010.0 0.0
19/06:00am 24.5 28.6 22.2 87 1.5 WSW 4 6 2 3 1009.9 1009.8 0.0
19/05:30am 24.3 28.9 22.4 89 1.3 NNE 2 4 1 2 1009.5 1009.4 0.0
19/05:00am 24.6 29.7 22.7 89 1.3 CALM 0 0 0 0 1009.3 1009.2 0.0
19/04:30am 24.4 29.3 22.3 88 1.4 CALM 0 0 0 0 1009.4 1009.3 0.0
19/04:00am 25.8 30.7 22.3 81 2.3 CALM 0 0 0 0 1009.3 1009.2 0.0
19/03:30am 26.5 31.8 23.0 81 2.4 CALM 0 2 0 1 1009.3 1009.2 0.0
19/03:00am 26.9 32.3 23.2 80 2.5 CALM 0 0 0 0 1009.5 1009.4 0.0
19/02:30am 27.1 31.6 22.9 78 2.9 NNE 4 6 2 3 1009.7 1009.6 0.0
19/02:00am 27.5 31.5 22.7 75 3.3 NNE 6 6 3 3 1009.6 1009.5 0.0
19/01:30am 27.5 31.2 22.2 73 3.6 NNE 6 7 3 4 1009.5 1009.4 0.0
19/01:00am 28.2 31.8 22.0 69 4.2 N 6 7 3 4 1009.8 1009.7 0.0
19/12:30am 28.6 33.5 22.3 68 4.3 CALM 0 0 0 0 1010.7 1010.6 0.0
19/12:00am 28.1 32.6 22.3 70 3.9 SSE 2 6 1 3 1011.1 1011.0 0.0
 
Date/Time
CST
Temp
°C
App
Temp
°C
Dew
Point
°C
Rel
Hum
%
Delta-T
°C
Wind Press
QNH
hPa
Press
MSL
hPa
Rain since
9am
mm
Dir  Spd
km/h
Gust
km/h
Spd
kts
Gust
kts
18/11:30pm 27.8 31.3 22.1 71 3.8 E 7 9 4 5 1011.1 1011.0 0.0
18/11:00pm 28.1 31.2 22.1 70 4.0 NE 9 13 5 7 1010.6 1010.5 0.0
18/10:30pm 28.6 31.6 21.9 67 4.5 NE 9 13 5 7 1010.7 1010.6 0.0
18/10:00pm 29.0 31.6 22.0 66 4.7 NE 11 13 6 7 1010.4 1010.3 0.0
18/09:30pm 29.2 31.8 21.9 64 4.9 NE 11 15 6 8 1010.7 1010.6 0.0
18/09:00pm 29.7 33.6 21.9 63 5.3 N 4 6 2 3 1010.5 1010.4 0.0
18/08:30pm 30.4 34.6 21.8 60 5.8 N 2 6 1 3 1010.8 1010.7 0.0
18/08:00pm 30.4 34.7 21.2 58 6.2 CALM 0 2 0 1 1010.6 1010.5 0.0
18/07:30pm 30.4 34.0 21.2 58 6.2 ENE 4 6 2 3 1010.0 1009.9 0.0
18/07:00pm 30.3 33.4 20.2 54 6.7 WNW 4 7 2 4 1009.1 1009.0 0.0
18/06:30pm 30.7 33.8 20.3 53 6.9 WNW 4 7 2 4 1008.9 1008.8 0.0
18/06:00pm 30.8 33.1 19.8 52 7.2 NW 7 11 4 6 1008.2 1008.1 0.0
18/05:30pm 31.1 32.4 19.4 49 7.7 WNW 11 17 6 9 1007.8 1007.7 0.0
18/05:00pm 32.6 33.9 20.2 48 8.2 NW 13 22 7 12 1006.7 1006.6 0.0
18/04:30pm 32.4 32.3 19.6 46 8.4 NW 19 26 10 14 1007.6 1007.5 0.0
18/04:00pm 35.4 37.7 21.3 44 9.6 NW 11 20 6 11 1007.0 1006.9 0.0
18/03:30pm 35.4 36.7 18.5 37 11.1 S 9 15 5 8 1007.0 1006.9 0.0
18/03:00pm 38.0 36.9 15.2 26 14.4 ENE 15 28 8 15 1007.5 1007.4 0.0
18/02:30pm 38.9 39.5 15.3 25 15.0 ENE 6 33 3 18 1007.5 1007.4 0.0
18/02:00pm 39.0 40.1 17.2 28 14.2 NNE 7 13 4 7 1008.1 1008.0 0.0
18/01:30pm 38.3 38.8 16.6 28 14.0 NNE 9 20 5 11 1008.8 1008.7 0.0
18/01:00pm 38.1 39.4 18.5 31 12.9 ENE 9 19 5 10 1009.4 1009.3 0.0
18/12:30pm 36.8 37.9 17.9 33 12.3 E 9 17 5 9 1010.0 1009.9 0.0
18/12:00pm 36.3 38.7 20.1 38 10.9 ESE 7 15 4 8 1010.6 1010.5 0.0
18/11:30am 34.7 37.6 21.0 44 9.3 W 7 11 4 6 1011.2 1011.1 0.0
18/11:00am 33.7 36.3 21.2 48 8.4 SW 9 17 5 9 1011.5 1011.4 0.0
18/10:30am 34.4 37.5 21.4 46 8.8 ESE 7 13 4 7 1011.9 1011.8 0.0

Other formats

Comma delimited format used in spreadsheet applications
http://www.bom.gov.au/fwo/IDD60801/IDD60801.94110.axf

JavaScript Object Notation format (JSON) in row-major order
http://www.bom.gov.au/fwo/IDD60801/IDD60801.94110.json

Data quality

Most of these data are generated automatically and are frequently updated. Quality checks on data are not normally performed. It is possible for incorrect values to appear. Refer to information at About Latest Weather Observations and please check the disclaimer before using these data.